createdAt,value
2018-12-17T00:01:06.098Z,80.84
2018-12-17T00:03:34.491Z,80.88
2018-12-17T00:06:03.982Z,81.46
2018-12-17T00:08:33.177Z,80.86
2018-12-17T00:11:02.212Z,80.30
2018-12-17T00:13:30.573Z,80.25
2018-12-17T00:15:58.825Z,80.41
2018-12-17T00:18:27.153Z,80.72
2018-12-17T00:20:55.459Z,80.54
2018-12-17T00:23:23.831Z,80.58
2018-12-17T00:25:52.132Z,81.09
2018-12-17T00:28:20.443Z,80.66
2018-12-17T00:30:48.696Z,80.37
2018-12-17T00:33:16.961Z,80.67
2018-12-17T00:35:45.206Z,80.18
2018-12-17T00:38:13.499Z,80.20
2018-12-17T00:40:42.068Z,79.48
2018-12-17T00:43:17.085Z,80.04
2018-12-17T00:45:45.471Z,79.92
2018-12-17T00:48:13.826Z,79.73
2018-12-17T00:50:42.134Z,80.21
2018-12-17T00:53:10.438Z,80.00
2018-12-17T00:55:38.742Z,79.86
2018-12-17T00:58:07.014Z,80.61
2018-12-17T01:00:35.336Z,80.41
2018-12-17T01:03:03.731Z,80.40
2018-12-17T01:05:32.164Z,80.35
2018-12-17T01:08:00.594Z,80.38
2018-12-17T01:10:28.878Z,80.16
2018-12-17T01:12:57.199Z,79.95
2018-12-17T01:15:25.435Z,80.40
2018-12-17T01:17:53.678Z,80.26
2018-12-17T01:20:21.951Z,80.52
2018-12-17T01:22:50.370Z,80.79
2018-12-17T01:25:18.745Z,80.39
2018-12-17T01:27:47.013Z,80.71
2018-12-17T01:30:15.248Z,80.41
2018-12-17T01:32:43.629Z,80.79
2018-12-17T01:35:11.902Z,81.00
2018-12-17T01:37:40.179Z,80.84
2018-12-17T01:40:08.515Z,80.90
2018-12-17T01:42:36.777Z,81.08
2018-12-17T01:45:05.751Z,81.32
2018-12-17T01:47:34.028Z,81.42
2018-12-17T01:50:02.304Z,81.20
2018-12-17T01:52:30.672Z,81.76
2018-12-17T01:54:58.893Z,81.33
2018-12-17T01:57:27.250Z,81.57
2018-12-17T01:59:55.505Z,81.13
2018-12-17T02:02:23.843Z,81.39
2018-12-17T02:04:52.184Z,81.83
2018-12-17T02:07:20.409Z,81.23
2018-12-17T02:09:48.686Z,80.65
2018-12-17T02:12:17.023Z,80.78
2018-12-17T02:14:45.285Z,81.27
2018-12-17T02:17:13.648Z,81.06
2018-12-17T02:19:41.880Z,80.59
2018-12-17T02:22:10.213Z,81.00
2018-12-17T02:24:38.473Z,80.41
2018-12-17T02:27:06.866Z,81.03
2018-12-17T02:29:35.107Z,81.55
2018-12-17T02:32:03.367Z,81.23
2018-12-17T02:34:31.618Z,80.97
2018-12-17T02:36:59.874Z,81.11
2018-12-17T02:39:28.168Z,80.84
2018-12-17T02:41:56.469Z,80.91
2018-12-17T02:44:24.901Z,81.06
2018-12-17T02:46:53.251Z,81.33
2018-12-17T02:49:21.834Z,81.28
2018-12-17T02:51:50.157Z,81.54
2018-12-17T02:54:18.508Z,80.57
2018-12-17T02:56:46.787Z,80.10
2018-12-17T02:59:15.633Z,80.91
2018-12-17T03:01:43.927Z,80.96
2018-12-17T03:04:12.520Z,80.82
2018-12-17T03:06:40.791Z,80.96
2018-12-17T03:09:09.024Z,81.15
2018-12-17T03:11:38.624Z,81.25
2018-12-17T03:14:07.015Z,81.53
2018-12-17T03:16:35.347Z,81.25
2018-12-17T03:19:03.595Z,81.67
2018-12-17T03:21:31.855Z,81.46
2018-12-17T03:24:00.341Z,81.84
2018-12-17T03:26:28.661Z,82.54
2018-12-17T03:28:57.352Z,82.55
2018-12-17T03:31:25.623Z,82.36
2018-12-17T03:33:54.004Z,81.86
2018-12-17T03:36:22.322Z,82.05
2018-12-17T03:38:50.599Z,81.88
2018-12-17T03:41:18.989Z,82.01
2018-12-17T03:43:47.271Z,82.36
2018-12-17T03:46:15.585Z,82.56
2018-12-17T03:48:43.906Z,82.51
2018-12-17T03:51:12.180Z,82.61
2018-12-17T03:53:40.391Z,82.40
2018-12-17T03:56:09.328Z,82.47
2018-12-17T03:58:37.606Z,82.10
2018-12-17T04:01:05.893Z,82.00
2018-12-17T04:03:34.221Z,82.06
2018-12-17T04:06:02.841Z,82.81
2018-12-17T04:08:31.367Z,82.49
2018-12-17T04:10:59.665Z,82.90
2018-12-17T04:13:27.921Z,82.97
2018-12-17T04:15:56.546Z,83.47
2018-12-17T04:18:25.785Z,83.28
2018-12-17T04:20:54.174Z,83.31
2018-12-17T04:23:22.451Z,83.40
2018-12-17T04:25:51.149Z,83.07
2018-12-17T04:28:19.682Z,82.95
2018-12-17T04:30:47.929Z,83.76
2018-12-17T04:33:16.334Z,82.98
2018-12-17T04:35:44.939Z,83.46
2018-12-17T04:38:13.530Z,83.88
2018-12-17T04:40:42.144Z,83.52
2018-12-17T04:43:10.416Z,83.80
2018-12-17T04:45:38.839Z,83.84
2018-12-17T04:48:07.218Z,83.38
2018-12-17T04:50:35.466Z,84.04
2018-12-17T04:53:03.730Z,83.64
2018-12-17T04:55:31.992Z,83.95
2018-12-17T04:58:00.673Z,84.00
2018-12-17T05:00:28.981Z,83.84
2018-12-17T05:02:57.505Z,83.92
2018-12-17T05:05:25.829Z,84.27
2018-12-17T05:07:55.198Z,84.40
2018-12-17T05:10:23.482Z,84.33
2018-12-17T05:12:51.732Z,83.94
2018-12-17T05:15:20.027Z,84.31
2018-12-17T05:17:48.368Z,84.45
2018-12-17T05:20:16.703Z,84.80
2018-12-17T05:22:45.425Z,84.43
2018-12-17T05:25:13.734Z,84.22
2018-12-17T05:27:42.353Z,84.56
2018-12-17T05:30:10.937Z,84.40
2018-12-17T05:32:39.360Z,84.24
2018-12-17T05:35:07.608Z,84.06
2018-12-17T05:37:36.021Z,83.85
2018-12-17T05:40:05.211Z,83.93
2018-12-17T05:42:33.459Z,83.82
2018-12-17T05:45:02.221Z,84.14
2018-12-17T05:47:30.618Z,84.45
2018-12-17T05:49:58.975Z,84.14
2018-12-17T05:52:27.662Z,84.74
2018-12-17T05:54:55.935Z,85.21
2018-12-17T05:57:24.161Z,84.93
2018-12-17T05:59:52.489Z,84.28
2018-12-17T06:02:20.780Z,84.66
2018-12-17T06:04:49.027Z,84.85
2018-12-17T06:07:17.366Z,84.68
2018-12-17T06:09:45.683Z,85.00
2018-12-17T06:12:13.977Z,85.18
2018-12-17T06:14:42.216Z,85.31
2018-12-17T06:17:10.569Z,85.30
2018-12-17T06:19:38.869Z,84.94
2018-12-17T06:22:07.137Z,85.60
2018-12-17T06:24:35.470Z,85.55
2018-12-17T06:27:03.765Z,85.80
2018-12-17T06:29:35.576Z,85.93
2018-12-17T06:32:02.448Z,85.28
2018-12-17T06:34:30.778Z,85.51
2018-12-17T06:36:59.067Z,85.57
2018-12-17T06:39:27.462Z,85.41
2018-12-17T06:41:55.782Z,85.39
2018-12-17T06:44:24.653Z,85.35
2018-12-17T06:46:52.997Z,85.33
2018-12-17T06:49:21.243Z,85.59
2018-12-17T06:51:49.632Z,85.60
2018-12-17T06:54:18.297Z,85.07
2018-12-17T06:56:46.538Z,84.99
2018-12-17T06:59:14.939Z,84.90
2018-12-17T07:01:43.201Z,85.09
2018-12-17T07:04:11.480Z,84.90
2018-12-17T07:06:39.743Z,84.96
2018-12-17T07:09:08.005Z,85.21
2018-12-17T07:11:36.277Z,84.43
2018-12-17T07:14:04.629Z,84.28
2018-12-17T07:16:32.949Z,85.00
2018-12-17T07:19:01.328Z,85.19
2018-12-17T07:21:29.571Z,84.87
2018-12-17T07:23:58.932Z,85.03
2018-12-17T07:26:28.784Z,85.25
2018-12-17T07:28:57.331Z,84.77
2018-12-17T07:31:25.597Z,84.87
2018-12-17T07:33:53.945Z,85.41
2018-12-17T07:36:29.570Z,85.40
2018-12-17T07:38:57.920Z,85.48
2018-12-17T07:41:26.255Z,85.14
2018-12-17T07:43:54.670Z,85.20
2018-12-17T07:46:23.033Z,85.27
2018-12-17T07:48:57.109Z,85.16
2018-12-17T07:51:25.473Z,85.52
2018-12-17T07:53:53.857Z,85.25
2018-12-17T07:59:16.123Z,84.96
2018-12-17T08:01:44.515Z,85.19
2018-12-17T08:04:12.900Z,85.58
2018-12-17T08:06:41.125Z,85.60
2018-12-17T08:09:09.387Z,85.70
2018-12-17T08:11:37.676Z,85.72
2018-12-17T08:14:05.937Z,85.74
2018-12-17T08:16:34.194Z,85.52
2018-12-17T08:19:02.544Z,85.23
2018-12-17T08:21:30.807Z,85.27
2018-12-17T08:23:59.044Z,85.91
2018-12-17T08:26:27.331Z,85.83
2018-12-17T08:28:55.643Z,85.12
2018-12-17T08:31:24.015Z,84.92
2018-12-17T08:33:52.385Z,85.76
2018-12-17T08:36:20.895Z,85.73
2018-12-17T08:38:49.153Z,85.58
2018-12-17T08:41:17.543Z,85.75
2018-12-17T08:43:46.086Z,85.64
2018-12-17T08:46:14.348Z,85.61
2018-12-17T08:48:42.723Z,85.86
2018-12-17T08:51:11.026Z,86.06
2018-12-17T08:53:39.253Z,85.82
2018-12-17T08:56:07.473Z,86.26
2018-12-17T08:58:35.881Z,85.63
2018-12-17T09:01:04.128Z,86.46
2018-12-17T09:03:32.516Z,85.80
2018-12-17T09:06:00.740Z,85.34
2018-12-17T09:09:53.179Z,85.77
2018-12-17T09:12:21.487Z,85.70
2018-12-17T09:14:49.843Z,85.13
2018-12-17T09:17:18.088Z,85.29
2018-12-17T09:19:46.371Z,85.64
2018-12-17T09:22:14.762Z,85.87
2018-12-17T09:24:43.059Z,86.02
2018-12-17T09:27:11.676Z,85.42
2018-12-17T09:29:39.975Z,85.58
2018-12-17T09:32:08.240Z,85.86
2018-12-17T09:34:36.501Z,85.60
2018-12-17T09:37:04.888Z,85.73
2018-12-17T09:39:33.166Z,85.28
2018-12-17T09:42:01.431Z,85.59
2018-12-17T09:44:29.762Z,85.24
2018-12-17T09:46:58.030Z,85.44
2018-12-17T09:49:26.463Z,85.86
2018-12-17T09:51:54.695Z,85.66
2018-12-17T09:54:22.970Z,85.94
2018-12-17T09:56:51.270Z,85.34
2018-12-17T09:59:19.497Z,85.93
2018-12-17T10:01:51.237Z,86.06
2018-12-17T10:04:20.090Z,86.52
2018-12-17T10:06:48.704Z,86.46
2018-12-17T10:09:16.983Z,86.04
2018-12-17T10:11:45.202Z,86.63
2018-12-17T10:14:13.561Z,86.11
2018-12-17T10:16:41.871Z,86.60
2018-12-17T10:19:10.127Z,86.13
2018-12-17T10:21:38.488Z,86.40
2018-12-17T10:24:06.813Z,85.98
2018-12-17T10:26:35.280Z,86.23
2018-12-17T10:29:03.564Z,86.27
2018-12-17T10:31:31.819Z,86.34
2018-12-17T10:34:00.083Z,85.72
2018-12-17T10:36:28.381Z,86.05
2018-12-17T10:38:56.683Z,85.73
2018-12-17T10:41:24.926Z,85.03
2018-12-17T10:43:59.461Z,85.26
2018-12-17T10:46:27.675Z,85.40
2018-12-17T10:48:55.914Z,84.55
2018-12-17T10:51:24.150Z,85.27
2018-12-17T10:53:52.522Z,84.92
2018-12-17T10:56:20.848Z,84.78
2018-12-17T10:58:49.227Z,85.38
2018-12-17T11:01:22.973Z,85.01
2018-12-17T11:03:55.744Z,85.09
2018-12-17T11:06:24.025Z,85.26
2018-12-17T11:08:52.474Z,84.39
2018-12-17T11:11:20.713Z,85.12
2018-12-17T11:13:49.014Z,85.05
2018-12-17T11:16:17.896Z,84.44
2018-12-17T11:18:46.206Z,85.06
2018-12-17T11:21:14.498Z,84.91
2018-12-17T11:23:42.728Z,84.65
2018-12-17T11:26:11.263Z,84.93
2018-12-17T11:28:39.529Z,84.53
2018-12-17T11:31:07.892Z,84.33
2018-12-17T11:33:36.271Z,84.32
2018-12-17T11:36:04.675Z,85.03
2018-12-17T11:38:32.913Z,84.87
2018-12-17T11:41:01.273Z,85.04
2018-12-17T11:43:29.810Z,85.14
2018-12-17T11:45:58.109Z,85.26
2018-12-17T11:48:26.446Z,85.52
2018-12-17T11:50:54.783Z,85.69
2018-12-17T11:53:23.059Z,85.65
2018-12-17T11:55:51.287Z,85.59
2018-12-17T11:58:19.543Z,84.92
2018-12-17T12:00:53.987Z,85.32
2018-12-17T12:03:22.694Z,84.89
2018-12-17T12:05:50.998Z,85.13
2018-12-17T12:08:19.223Z,85.53
2018-12-17T12:10:47.461Z,85.14
2018-12-17T12:13:15.739Z,85.43
2018-12-17T12:15:44.016Z,85.46
2018-12-17T12:18:12.245Z,85.44
2018-12-17T12:20:40.595Z,85.50
2018-12-17T12:23:08.847Z,85.13
2018-12-17T12:25:37.087Z,85.68
2018-12-17T12:28:05.405Z,84.82
2018-12-17T12:30:33.790Z,85.16
2018-12-17T12:33:02.207Z,84.80
2018-12-17T12:35:30.466Z,85.51
2018-12-17T12:37:58.709Z,85.61
2018-12-17T12:40:27.059Z,85.52
2018-12-17T12:42:55.432Z,85.18
2018-12-17T12:45:23.793Z,85.54
2018-12-17T12:47:52.044Z,84.70
2018-12-17T12:50:27.016Z,84.96
2018-12-17T12:52:55.308Z,84.59
2018-12-17T12:55:23.560Z,84.26
2018-12-17T12:57:51.889Z,84.24
2018-12-17T13:00:20.588Z,84.85
2018-12-17T13:02:48.943Z,84.29
2018-12-17T13:05:17.250Z,84.37
2018-12-17T13:07:45.547Z,84.83
2018-12-17T13:10:13.996Z,84.63
2018-12-17T13:15:35.915Z,84.51
2018-12-17T13:18:05.011Z,84.84
2018-12-17T13:20:33.261Z,84.40
2018-12-17T13:23:01.536Z,85.26
2018-12-17T13:25:33.980Z,84.62
2018-12-17T13:30:55.670Z,84.75
2018-12-17T13:33:23.930Z,85.11
2018-12-17T13:35:52.513Z,84.44
2018-12-17T13:38:20.824Z,84.57
2018-12-17T13:40:49.811Z,85.02
2018-12-17T13:43:18.103Z,84.63
2018-12-17T13:45:46.353Z,84.90
2018-12-17T13:48:14.637Z,84.44
2018-12-17T13:50:42.859Z,84.90
2018-12-17T13:53:16.611Z,84.53
2018-12-17T13:55:44.840Z,85.10
2018-12-17T13:58:13.242Z,84.40
2018-12-17T14:00:41.633Z,84.51
2018-12-17T14:03:10.051Z,84.75
2018-12-17T14:05:38.769Z,84.70
2018-12-17T14:08:07.019Z,84.86
2018-12-17T14:10:40.875Z,84.90
2018-12-17T14:13:09.184Z,84.55
2018-12-17T14:15:42.916Z,84.23
2018-12-17T14:18:16.732Z,84.04
2018-12-17T14:20:50.413Z,84.06
2018-12-17T14:23:19.071Z,84.59
2018-12-17T14:25:47.362Z,84.32
2018-12-17T14:28:15.625Z,84.61
2018-12-17T14:30:43.978Z,84.52
2018-12-17T14:33:12.474Z,84.90
2018-12-17T14:35:44.971Z,84.59
2018-12-17T14:38:13.273Z,84.11
2018-12-17T14:40:41.506Z,84.67
2018-12-17T14:43:09.786Z,84.67
2018-12-17T14:45:38.232Z,84.27
2018-12-17T14:48:06.490Z,83.86
2018-12-17T14:50:34.881Z,84.20
2018-12-17T14:53:03.151Z,84.73
2018-12-17T14:55:31.418Z,84.69
2018-12-17T14:57:59.731Z,84.35
2018-12-17T15:00:28.413Z,83.81
2018-12-17T15:02:56.764Z,83.77
2018-12-17T15:05:25.065Z,84.14
2018-12-17T15:07:53.338Z,83.51
2018-12-17T15:10:21.865Z,83.56
2018-12-17T15:12:50.196Z,83.79
2018-12-17T15:15:18.451Z,83.35
2018-12-17T15:17:46.754Z,82.93
2018-12-17T15:20:15.010Z,83.19
2018-12-17T15:22:43.251Z,83.17
2018-12-17T15:25:11.729Z,82.52
2018-12-17T15:27:40.029Z,82.67
2018-12-17T15:30:08.730Z,82.88
2018-12-17T15:32:38.127Z,83.28
2018-12-17T15:35:07.286Z,83.50
2018-12-17T15:37:36.468Z,83.75
2018-12-17T15:40:05.614Z,83.51
2018-12-17T15:42:40.630Z,83.54
2018-12-17T15:45:05.405Z,83.78
2018-12-17T15:47:33.719Z,83.75
2018-12-17T15:50:02.046Z,83.43
2018-12-17T15:52:30.416Z,83.97
2018-12-17T15:54:58.698Z,84.06
2018-12-17T15:57:26.938Z,84.04
2018-12-17T15:59:55.192Z,83.89
2018-12-17T16:02:23.723Z,83.79
2018-12-17T16:04:52.104Z,83.16
2018-12-17T16:07:20.840Z,83.21
2018-12-17T16:09:51.118Z,83.49
2018-12-17T16:12:19.775Z,83.81
2018-12-17T16:14:48.094Z,83.38
2018-12-17T16:17:16.642Z,83.60
2018-12-17T16:19:44.988Z,83.88
2018-12-17T16:22:13.280Z,83.70
2018-12-17T16:24:41.640Z,84.28
2018-12-17T16:27:10.077Z,83.96
2018-12-17T16:29:38.331Z,84.18
2018-12-17T16:32:06.920Z,84.44
2018-12-17T16:34:35.362Z,84.41
2018-12-17T16:37:03.953Z,84.54
2018-12-17T16:39:32.336Z,84.22
2018-12-17T16:42:00.635Z,84.48
2018-12-17T16:44:28.905Z,85.16
2018-12-17T16:46:57.916Z,85.22
2018-12-17T16:49:26.285Z,84.39
2018-12-17T16:51:54.561Z,85.13
2018-12-17T16:54:23.011Z,85.06
2018-12-17T16:56:51.287Z,84.91
2018-12-17T16:59:19.594Z,85.15
2018-12-17T17:01:48.002Z,84.78
2018-12-17T17:04:16.258Z,85.01
2018-12-17T17:06:44.546Z,85.03
2018-12-17T17:09:12.865Z,85.13
2018-12-17T17:11:41.289Z,84.72
2018-12-17T17:14:09.642Z,84.68
2018-12-17T17:16:38.167Z,85.02
2018-12-17T17:19:06.468Z,84.97
2018-12-17T17:21:34.756Z,85.29
2018-12-17T17:24:03.069Z,85.11
2018-12-17T17:26:31.375Z,84.92
2018-12-17T17:31:53.004Z,85.21
2018-12-17T17:34:21.532Z,84.92
2018-12-17T17:36:49.832Z,84.58
2018-12-17T17:39:18.127Z,84.85
2018-12-17T17:41:46.468Z,84.96
2018-12-17T17:44:14.772Z,84.55
2018-12-17T17:46:43.070Z,84.96
2018-12-17T17:49:11.328Z,85.42
2018-12-17T17:51:40.165Z,85.24
2018-12-17T17:54:08.461Z,84.68
2018-12-17T17:59:29.290Z,85.11
2018-12-17T18:01:57.693Z,85.37
2018-12-17T18:04:26.193Z,85.52
2018-12-17T18:07:01.024Z,85.04
2018-12-17T18:09:29.371Z,85.16
2018-12-17T18:11:57.647Z,85.27
2018-12-17T18:14:26.006Z,85.28
2018-12-17T18:16:54.790Z,85.70
2018-12-17T18:19:23.997Z,85.88
2018-12-17T18:22:02.552Z,85.46
2018-12-17T18:24:30.807Z,85.28
2018-12-17T18:26:59.094Z,85.93
2018-12-17T18:29:28.296Z,85.74
2018-12-17T18:31:56.615Z,85.50
2018-12-17T18:34:25.125Z,85.04
2018-12-17T18:36:53.390Z,86.02
2018-12-17T18:39:22.146Z,86.12
2018-12-17T18:41:50.520Z,85.89
2018-12-17T18:44:18.800Z,86.22
2018-12-17T18:46:47.183Z,85.54
2018-12-17T18:49:15.502Z,86.07
2018-12-17T18:51:43.868Z,85.67
2018-12-17T18:54:12.165Z,85.70
2018-12-17T18:59:33.446Z,85.81
2018-12-17T19:02:01.715Z,85.37
2018-12-17T19:04:29.978Z,85.74
2018-12-17T19:06:58.253Z,86.36
2018-12-17T19:12:19.934Z,86.06
2018-12-17T19:14:54.234Z,86.33
2018-12-17T19:17:23.412Z,85.93
2018-12-17T19:19:51.700Z,86.37
2018-12-17T19:22:21.110Z,86.06
2018-12-17T19:27:42.256Z,86.44
2018-12-17T19:30:10.650Z,86.15
2018-12-17T19:32:40.289Z,87.16
2018-12-17T19:35:09.170Z,86.15
2018-12-17T19:37:37.421Z,86.51
2018-12-17T19:40:06.798Z,86.46
2018-12-17T19:42:35.122Z,86.21
2018-12-17T19:45:03.516Z,86.34
2018-12-17T19:47:31.878Z,86.17
2018-12-17T19:52:52.932Z,86.52
2018-12-17T19:55:21.368Z,86.72
2018-12-17T19:57:49.793Z,86.28
2018-12-17T20:00:18.299Z,85.98
2018-12-17T20:02:47.097Z,86.43
2018-12-17T20:05:15.794Z,86.88
2018-12-17T20:07:44.079Z,86.35
2018-12-17T20:10:17.787Z,85.80
2018-12-17T20:12:46.061Z,85.70
2018-12-17T20:15:14.474Z,85.78
2018-12-17T20:20:35.374Z,85.72
2018-12-17T20:23:03.844Z,86.21
2018-12-17T20:25:32.248Z,85.82
2018-12-17T20:28:00.530Z,85.57
2018-12-17T20:30:28.892Z,85.92
2018-12-17T20:32:57.292Z,86.16
2018-12-17T20:35:25.995Z,86.18
2018-12-17T20:37:54.353Z,86.46
2018-12-17T20:40:23.071Z,86.00
2018-12-17T20:42:52.146Z,86.26
2018-12-17T20:45:20.678Z,85.62
2018-12-17T20:47:49.556Z,85.92
2018-12-17T20:50:18.147Z,85.96
2018-12-17T20:52:46.694Z,85.75
2018-12-17T20:55:15.016Z,86.11
2018-12-17T20:57:43.861Z,85.78
2018-12-17T21:00:12.498Z,85.74
2018-12-17T21:02:40.995Z,86.12
2018-12-17T21:05:09.497Z,85.79
2018-12-17T21:07:37.919Z,85.77
2018-12-17T21:10:07.953Z,85.82
2018-12-17T21:12:36.401Z,85.48
2018-12-17T21:15:05.856Z,86.37
2018-12-17T21:17:34.197Z,86.13
2018-12-17T21:20:02.535Z,85.90
2018-12-17T21:22:31.012Z,85.74
2018-12-17T21:24:59.393Z,86.08
2018-12-17T21:27:27.790Z,85.56
2018-12-17T21:29:56.279Z,85.72
2018-12-17T21:32:24.640Z,85.54
2018-12-17T21:34:53.122Z,86.16
2018-12-17T21:37:21.676Z,85.47
2018-12-17T21:39:49.960Z,85.49
2018-12-17T21:42:18.348Z,85.49
2018-12-17T21:44:46.907Z,85.82
2018-12-17T21:47:15.196Z,85.94
2018-12-17T21:49:43.567Z,85.99
2018-12-17T21:52:11.880Z,86.11
2018-12-17T21:54:40.214Z,85.79
2018-12-17T21:57:08.542Z,85.86
2018-12-17T21:59:36.866Z,86.37
2018-12-17T22:02:05.187Z,86.15
2018-12-17T22:04:33.828Z,86.43
2018-12-17T22:07:02.170Z,86.23
2018-12-17T22:09:30.914Z,86.42
2018-12-17T22:11:59.293Z,85.90
2018-12-17T22:14:27.576Z,86.00
2018-12-17T22:16:55.885Z,86.21
2018-12-17T22:19:24.248Z,86.27
2018-12-17T22:24:45.282Z,86.26
2018-12-17T22:27:13.532Z,86.02
2018-12-17T22:29:41.856Z,86.65
2018-12-17T22:32:10.189Z,86.64
2018-12-17T22:34:38.799Z,86.49
2018-12-17T22:37:07.297Z,86.42
2018-12-17T22:39:35.642Z,86.49
2018-12-17T22:42:04.145Z,86.23
2018-12-17T22:44:32.447Z,86.42
2018-12-17T22:47:00.752Z,86.10
2018-12-17T22:49:29.034Z,86.25
2018-12-17T22:51:57.385Z,86.06
2018-12-17T22:54:25.786Z,86.82
2018-12-17T22:56:54.076Z,86.36
2018-12-17T22:59:22.333Z,86.45
2018-12-17T23:01:50.593Z,86.12
2018-12-17T23:04:18.963Z,86.81
2018-12-17T23:06:47.238Z,86.37
2018-12-17T23:09:14.528Z,86.67
2018-12-17T23:11:59.702Z,86.43
2018-12-17T23:14:39.484Z,85.90
2018-12-17T23:17:19.150Z,85.78
2018-12-17T23:19:48.112Z,85.91
2018-12-17T23:22:16.643Z,85.48
2018-12-17T23:24:44.912Z,86.37
2018-12-17T23:27:13.260Z,85.97
2018-12-17T23:29:41.520Z,86.05
2018-12-17T23:32:09.944Z,86.12
2018-12-17T23:34:38.244Z,86.35
2018-12-17T23:37:06.549Z,86.01
2018-12-17T23:39:34.824Z,86.19
2018-12-17T23:42:03.153Z,86.09
2018-12-17T23:44:35.693Z,86.17
2018-12-17T23:47:03.999Z,86.29
2018-12-17T23:49:32.257Z,86.54
2018-12-17T23:52:00.569Z,86.38
2018-12-17T23:54:28.839Z,86.24
2018-12-17T23:56:57.095Z,86.65
2018-12-17T23:59:25.387Z,86.62
